sensor_id;sensor_type;location;lat;lon;timestamp;temperature;humidity
38090;DHT22;23904;52.322;10.232;2022-11-21T00:00:57;1.00;99.90
38090;DHT22;23904;52.322;10.232;2022-11-21T00:03:23;1.00;99.90
38090;DHT22;23904;52.322;10.232;2022-11-21T00:05:48;1.00;99.90
38090;DHT22;23904;52.322;10.232;2022-11-21T00:08:16;0.90;99.90
38090;DHT22;23904;52.322;10.232;2022-11-21T00:10:43;0.90;99.90
38090;DHT22;23904;52.322;10.232;2022-11-21T00:13:12;0.90;99.90
38090;DHT22;23904;52.322;10.232;2022-11-21T00:15:39;0.90;99.90
38090;DHT22;23904;52.322;10.232;2022-11-21T00:18:05;1.00;99.90
38090;DHT22;23904;52.322;10.232;2022-11-21T00:20:31;1.00;99.90
38090;DHT22;23904;52.322;10.232;2022-11-21T00:22:56;1.00;99.90
38090;DHT22;23904;52.322;10.232;2022-11-21T00:25:22;1.00;99.90
38090;DHT22;23904;52.322;10.232;2022-11-21T00:27:48;1.10;99.90
38090;DHT22;23904;52.322;10.232;2022-11-21T00:30:15;1.10;99.90
38090;DHT22;23904;52.322;10.232;2022-11-21T00:32:41;1.00;99.90
38090;DHT22;23904;52.322;10.232;2022-11-21T00:35:07;1.00;99.90
38090;DHT22;23904;52.322;10.232;2022-11-21T00:37:33;1.00;99.90
38090;DHT22;23904;52.322;10.232;2022-11-21T00:39:59;1.00;99.90
38090;DHT22;23904;52.322;10.232;2022-11-21T00:42:26;0.90;99.90
38090;DHT22;23904;52.322;10.232;2022-11-21T00:44:51;1.00;99.90
38090;DHT22;23904;52.322;10.232;2022-11-21T00:47:17;1.00;99.90
38090;DHT22;23904;52.322;10.232;2022-11-21T00:49:43;1.00;99.90
38090;DHT22;23904;52.322;10.232;2022-11-21T00:52:09;1.00;99.90
38090;DHT22;23904;52.322;10.232;2022-11-21T00:54:34;1.00;99.90
38090;DHT22;23904;52.322;10.232;2022-11-21T00:57:02;1.00;99.90
38090;DHT22;23904;52.322;10.232;2022-11-21T00:59:27;1.00;99.90
38090;DHT22;23904;52.322;10.232;2022-11-21T01:01:55;1.10;99.90
38090;DHT22;23904;52.322;10.232;2022-11-21T01:04:21;1.00;99.90
38090;DHT22;23904;52.322;10.232;2022-11-21T01:06:47;1.00;99.90
38090;DHT22;23904;52.322;10.232;2022-11-21T01:09:13;0.90;99.90
38090;DHT22;23904;52.322;10.232;2022-11-21T01:11:39;0.90;99.90
38090;DHT22;23904;52.322;10.232;2022-11-21T01:14:04;1.00;99.90
38090;DHT22;23904;52.322;10.232;2022-11-21T01:16:31;0.90;99.90
38090;DHT22;23904;52.322;10.232;2022-11-21T01:18:57;0.90;99.90
38090;DHT22;23904;52.322;10.232;2022-11-21T01:21:25;0.90;99.90
38090;DHT22;23904;52.322;10.232;2022-11-21T01:23:57;1.00;99.90
38090;DHT22;23904;52.322;10.232;2022-11-21T01:26:25;0.90;99.90
38090;DHT22;23904;52.322;10.232;2022-11-21T01:28:52;0.90;99.90
38090;DHT22;23904;52.322;10.232;2022-11-21T01:31:20;0.90;99.90
38090;DHT22;23904;52.322;10.232;2022-11-21T01:33:49;0.90;99.90
38090;DHT22;23904;52.322;10.232;2022-11-21T01:36:15;0.90;99.90
38090;DHT22;23904;52.322;10.232;2022-11-21T01:38:42;0.90;99.90
38090;DHT22;23904;52.322;10.232;2022-11-21T01:41:10;0.90;99.90
38090;DHT22;23904;52.322;10.232;2022-11-21T01:43:37;1.00;99.90
38090;DHT22;23904;52.322;10.232;2022-11-21T01:51:01;0.90;99.90
38090;DHT22;23904;52.322;10.232;2022-11-21T01:53:39;0.90;99.90
38090;DHT22;23904;52.322;10.232;2022-11-21T01:56:07;1.00;99.90
38090;DHT22;23904;52.322;10.232;2022-11-21T01:58:33;1.00;99.90
38090;DHT22;23904;52.322;10.232;2022-11-21T02:00:59;1.00;99.90
38090;DHT22;23904;52.322;10.232;2022-11-21T02:03:26;1.10;99.90
38090;DHT22;23904;52.322;10.232;2022-11-21T02:05:53;1.10;99.90
38090;DHT22;23904;52.322;10.232;2022-11-21T02:08:19;1.00;99.90
38090;DHT22;23904;52.322;10.232;2022-11-21T02:10:53;1.00;99.90
38090;DHT22;23904;52.322;10.232;2022-11-21T02:13:24;1.00;99.90
38090;DHT22;23904;52.322;10.232;2022-11-21T02:15:49;1.00;99.90
38090;DHT22;23904;52.322;10.232;2022-11-21T02:18:15;0.90;99.90
38090;DHT22;23904;52.322;10.232;2022-11-21T02:20:41;1.00;99.90
38090;DHT22;23904;52.322;10.232;2022-11-21T02:25:50;1.00;99.90
38090;DHT22;23904;52.322;10.232;2022-11-21T02:28:17;1.00;99.90
38090;DHT22;23904;52.322;10.232;2022-11-21T02:30:43;1.00;99.90
38090;DHT22;23904;52.322;10.232;2022-11-21T02:33:09;1.00;99.90
38090;DHT22;23904;52.322;10.232;2022-11-21T02:35:36;1.00;99.90
38090;DHT22;23904;52.322;10.232;2022-11-21T02:38:21;1.00;99.90
38090;DHT22;23904;52.322;10.232;2022-11-21T02:43:29;0.80;99.90
38090;DHT22;23904;52.322;10.232;2022-11-21T02:45:57;0.80;99.90
38090;DHT22;23904;52.322;10.232;2022-11-21T02:48:23;0.70;99.90
38090;DHT22;23904;52.322;10.232;2022-11-21T02:50:48;0.50;99.90
38090;DHT22;23904;52.322;10.232;2022-11-21T02:53:15;0.50;99.90
38090;DHT22;23904;52.322;10.232;2022-11-21T02:55:42;0.50;99.90
38090;DHT22;23904;52.322;10.232;2022-11-21T02:58:08;0.40;99.90
38090;DHT22;23904;52.322;10.232;2022-11-21T03:00:35;0.40;99.90
38090;DHT22;23904;52.322;10.232;2022-11-21T03:03:04;0.40;99.90
38090;DHT22;23904;52.322;10.232;2022-11-21T03:05:30;0.40;99.90
38090;DHT22;23904;52.322;10.232;2022-11-21T03:07:55;0.40;99.90
38090;DHT22;23904;52.322;10.232;2022-11-21T03:10:22;0.40;99.90
38090;DHT22;23904;52.322;10.232;2022-11-21T03:12:47;0.40;99.90
38090;DHT22;23904;52.322;10.232;2022-11-21T03:15:13;0.50;99.90
38090;DHT22;23904;52.322;10.232;2022-11-21T03:17:39;0.50;99.90
38090;DHT22;23904;52.322;10.232;2022-11-21T03:20:05;0.60;99.90
38090;DHT22;23904;52.322;10.232;2022-11-21T03:22:34;0.60;99.90
38090;DHT22;23904;52.322;10.232;2022-11-21T03:25:00;0.70;99.90
38090;DHT22;23904;52.322;10.232;2022-11-21T03:27:25;0.70;99.90
38090;DHT22;23904;52.322;10.232;2022-11-21T03:29:51;0.70;99.90
38090;DHT22;23904;52.322;10.232;2022-11-21T03:32:17;0.60;99.90
38090;DHT22;23904;52.322;10.232;2022-11-21T03:34:43;0.60;99.90
38090;DHT22;23904;52.322;10.232;2022-11-21T03:37:08;0.60;99.90
38090;DHT22;23904;52.322;10.232;2022-11-21T03:39:34;0.50;99.90
38090;DHT22;23904;52.322;10.232;2022-11-21T03:41:59;0.60;99.90
38090;DHT22;23904;52.322;10.232;2022-11-21T03:44:25;0.60;99.90
38090;DHT22;23904;52.322;10.232;2022-11-21T03:46:55;0.60;99.90
38090;DHT22;23904;52.322;10.232;2022-11-21T03:49:20;0.50;99.90
38090;DHT22;23904;52.322;10.232;2022-11-21T03:51:46;0.50;99.90
38090;DHT22;23904;52.322;10.232;2022-11-21T03:54:11;0.50;99.90
38090;DHT22;23904;52.322;10.232;2022-11-21T03:56:37;0.60;99.90
38090;DHT22;23904;52.322;10.232;2022-11-21T03:59:06;0.50;99.90
38090;DHT22;23904;52.322;10.232;2022-11-21T04:01:32;0.50;99.90
38090;DHT22;23904;52.322;10.232;2022-11-21T04:03:59;0.50;99.90
38090;DHT22;23904;52.322;10.232;2022-11-21T04:06:24;0.50;99.90
38090;DHT22;23904;52.322;10.232;2022-11-21T04:08:50;0.50;99.90
38090;DHT22;23904;52.322;10.232;2022-11-21T04:11:18;0.50;99.90
38090;DHT22;23904;52.322;10.232;2022-11-21T04:13:47;0.40;99.90
38090;DHT22;23904;52.322;10.232;2022-11-21T04:16:13;0.40;99.90
38090;DHT22;23904;52.322;10.232;2022-11-21T04:18:38;0.40;99.90
38090;DHT22;23904;52.322;10.232;2022-11-21T04:21:05;0.40;99.90
38090;DHT22;23904;52.322;10.232;2022-11-21T04:23:31;0.50;99.90
38090;DHT22;23904;52.322;10.232;2022-11-21T04:25:57;0.50;99.90
38090;DHT22;23904;52.322;10.232;2022-11-21T04:28:23;0.50;99.90
38090;DHT22;23904;52.322;10.232;2022-11-21T04:30:49;0.50;99.90
38090;DHT22;23904;52.322;10.232;2022-11-21T04:33:15;0.50;99.90
38090;DHT22;23904;52.322;10.232;2022-11-21T04:35:42;0.40;99.90
38090;DHT22;23904;52.322;10.232;2022-11-21T04:38:09;0.40;99.90
38090;DHT22;23904;52.322;10.232;2022-11-21T04:40:36;0.40;99.90
38090;DHT22;23904;52.322;10.232;2022-11-21T04:43:02;0.30;99.90
38090;DHT22;23904;52.322;10.232;2022-11-21T04:45:28;0.10;99.90
38090;DHT22;23904;52.322;10.232;2022-11-21T04:47:54;0.00;99.90
38090;DHT22;23904;52.322;10.232;2022-11-21T04:50:20;-0.20;99.90
38090;DHT22;23904;52.322;10.232;2022-11-21T04:52:49;-0.30;99.90
38090;DHT22;23904;52.322;10.232;2022-11-21T04:55:18;-0.40;99.90
38090;DHT22;23904;52.322;10.232;2022-11-21T04:57:45;-0.50;99.90
38090;DHT22;23904;52.322;10.232;2022-11-21T05:00:11;-0.60;99.90
38090;DHT22;23904;52.322;10.232;2022-11-21T05:02:38;-0.60;99.90
38090;DHT22;23904;52.322;10.232;2022-11-21T05:05:03;-0.60;99.90
38090;DHT22;23904;52.322;10.232;2022-11-21T05:07:29;-0.50;99.90
38090;DHT22;23904;52.322;10.232;2022-11-21T05:09:55;-0.50;99.90
38090;DHT22;23904;52.322;10.232;2022-11-21T05:12:20;-0.50;99.90
38090;DHT22;23904;52.322;10.232;2022-11-21T05:15:04;-0.50;99.90
38090;DHT22;23904;52.322;10.232;2022-11-21T05:17:30;-0.50;99.90
38090;DHT22;23904;52.322;10.232;2022-11-21T05:19:56;-0.50;99.90
38090;DHT22;23904;52.322;10.232;2022-11-21T05:22:21;-0.60;99.90
38090;DHT22;23904;52.322;10.232;2022-11-21T05:24:47;-0.70;99.90
38090;DHT22;23904;52.322;10.232;2022-11-21T05:27:12;-0.60;99.90
38090;DHT22;23904;52.322;10.232;2022-11-21T05:29:38;-0.70;99.90
38090;DHT22;23904;52.322;10.232;2022-11-21T05:32:04;-0.70;99.90
38090;DHT22;23904;52.322;10.232;2022-11-21T05:34:29;-0.80;99.90
38090;DHT22;23904;52.322;10.232;2022-11-21T05:36:55;-0.70;99.90
38090;DHT22;23904;52.322;10.232;2022-11-21T05:39:21;-0.80;99.90
38090;DHT22;23904;52.322;10.232;2022-11-21T05:41:47;-0.80;99.90
38090;DHT22;23904;52.322;10.232;2022-11-21T05:44:12;-0.90;99.90
38090;DHT22;23904;52.322;10.232;2022-11-21T05:46:38;-0.80;99.90
38090;DHT22;23904;52.322;10.232;2022-11-21T05:49:04;-0.90;99.90
38090;DHT22;23904;52.322;10.232;2022-11-21T05:51:29;-0.90;99.90
38090;DHT22;23904;52.322;10.232;2022-11-21T05:53:55;-0.90;99.90
38090;DHT22;23904;52.322;10.232;2022-11-21T05:56:20;-0.90;99.90
38090;DHT22;23904;52.322;10.232;2022-11-21T05:58:46;-0.80;99.90
38090;DHT22;23904;52.322;10.232;2022-11-21T06:01:12;-0.80;99.90
38090;DHT22;23904;52.322;10.232;2022-11-21T06:04:01;-0.80;99.90
38090;DHT22;23904;52.322;10.232;2022-11-21T06:06:27;-0.80;99.90
38090;DHT22;23904;52.322;10.232;2022-11-21T06:08:52;-0.90;99.90
38090;DHT22;23904;52.322;10.232;2022-11-21T06:11:18;-0.90;99.90
38090;DHT22;23904;52.322;10.232;2022-11-21T06:13:43;-1.00;99.90
38090;DHT22;23904;52.322;10.232;2022-11-21T06:16:10;-1.10;99.90
38090;DHT22;23904;52.322;10.232;2022-11-21T06:18:38;-1.10;99.90
38090;DHT22;23904;52.322;10.232;2022-11-21T06:21:05;-1.00;99.90
38090;DHT22;23904;52.322;10.232;2022-11-21T06:23:41;-0.90;99.90
38090;DHT22;23904;52.322;10.232;2022-11-21T06:26:07;-0.90;99.90
38090;DHT22;23904;52.322;10.232;2022-11-21T06:28:37;-0.90;99.90
38090;DHT22;23904;52.322;10.232;2022-11-21T06:33:29;-0.90;99.90
38090;DHT22;23904;52.322;10.232;2022-11-21T06:35:55;-0.90;99.90
38090;DHT22;23904;52.322;10.232;2022-11-21T06:38:21;-0.80;99.90
38090;DHT22;23904;52.322;10.232;2022-11-21T06:40:46;-0.90;99.90
38090;DHT22;23904;52.322;10.232;2022-11-21T06:43:12;-1.00;99.90
38090;DHT22;23904;52.322;10.232;2022-11-21T06:45:37;-1.00;99.90
38090;DHT22;23904;52.322;10.232;2022-11-21T06:48:03;-1.00;99.90
38090;DHT22;23904;52.322;10.232;2022-11-21T06:50:29;-0.90;99.90
38090;DHT22;23904;52.322;10.232;2022-11-21T06:52:59;-1.00;99.90
38090;DHT22;23904;52.322;10.232;2022-11-21T06:55:25;-0.90;99.90
38090;DHT22;23904;52.322;10.232;2022-11-21T06:58:00;-1.00;99.90
38090;DHT22;23904;52.322;10.232;2022-11-21T07:00:26;-1.10;99.90
38090;DHT22;23904;52.322;10.232;2022-11-21T07:03:01;-1.20;99.90
38090;DHT22;23904;52.322;10.232;2022-11-21T07:05:27;-1.20;99.90
38090;DHT22;23904;52.322;10.232;2022-11-21T07:07:56;-1.20;99.90
38090;DHT22;23904;52.322;10.232;2022-11-21T07:10:26;-1.10;99.90
38090;DHT22;23904;52.322;10.232;2022-11-21T07:12:55;-1.10;99.90
38090;DHT22;23904;52.322;10.232;2022-11-21T07:15:40;-1.10;99.90
38090;DHT22;23904;52.322;10.232;2022-11-21T07:18:06;-1.00;99.90
38090;DHT22;23904;52.322;10.232;2022-11-21T07:20:32;-1.00;99.90
38090;DHT22;23904;52.322;10.232;2022-11-21T07:22:57;-0.90;99.90
38090;DHT22;23904;52.322;10.232;2022-11-21T07:25:23;-0.90;99.90
38090;DHT22;23904;52.322;10.232;2022-11-21T07:27:48;-0.80;99.90
38090;DHT22;23904;52.322;10.232;2022-11-21T07:30:14;-0.80;99.90
38090;DHT22;23904;52.322;10.232;2022-11-21T07:32:40;-0.80;99.90
38090;DHT22;23904;52.322;10.232;2022-11-21T07:35:05;-0.80;99.90
38090;DHT22;23904;52.322;10.232;2022-11-21T07:37:31;-0.70;99.90
38090;DHT22;23904;52.322;10.232;2022-11-21T07:39:57;-0.70;99.90
38090;DHT22;23904;52.322;10.232;2022-11-21T07:42:23;-0.90;99.90
38090;DHT22;23904;52.322;10.232;2022-11-21T07:44:48;-1.00;99.90
38090;DHT22;23904;52.322;10.232;2022-11-21T07:47:14;-1.00;99.90
38090;DHT22;23904;52.322;10.232;2022-11-21T07:49:39;-1.00;99.90
38090;DHT22;23904;52.322;10.232;2022-11-21T07:52:05;-1.00;99.90
38090;DHT22;23904;52.322;10.232;2022-11-21T07:54:31;-0.90;99.90
38090;DHT22;23904;52.322;10.232;2022-11-21T07:56:56;-0.90;99.90
38090;DHT22;23904;52.322;10.232;2022-11-21T07:59:22;-0.90;99.90
38090;DHT22;23904;52.322;10.232;2022-11-21T08:01:49;-0.90;99.90
38090;DHT22;23904;52.322;10.232;2022-11-21T08:04:15;-0.80;99.90
38090;DHT22;23904;52.322;10.232;2022-11-21T08:06:40;-0.70;99.90
38090;DHT22;23904;52.322;10.232;2022-11-21T08:09:06;-0.60;99.90
38090;DHT22;23904;52.322;10.232;2022-11-21T08:11:31;-0.50;99.90
38090;DHT22;23904;52.322;10.232;2022-11-21T08:14:00;-0.40;99.90
38090;DHT22;23904;52.322;10.232;2022-11-21T08:16:26;-0.40;99.90
38090;DHT22;23904;52.322;10.232;2022-11-21T08:18:52;-0.30;99.90
38090;DHT22;23904;52.322;10.232;2022-11-21T08:21:18;-0.20;99.90
38090;DHT22;23904;52.322;10.232;2022-11-21T08:23:44;-0.30;99.90
38090;DHT22;23904;52.322;10.232;2022-11-21T08:26:09;-0.20;99.90
38090;DHT22;23904;52.322;10.232;2022-11-21T08:28:35;-0.20;99.90
38090;DHT22;23904;52.322;10.232;2022-11-21T08:31:04;-0.10;99.90
38090;DHT22;23904;52.322;10.232;2022-11-21T08:33:30;0.00;99.90
38090;DHT22;23904;52.322;10.232;2022-11-21T08:35:56;0.00;99.90
38090;DHT22;23904;52.322;10.232;2022-11-21T08:38:23;0.10;99.90
38090;DHT22;23904;52.322;10.232;2022-11-21T08:40:49;0.10;99.90
38090;DHT22;23904;52.322;10.232;2022-11-21T08:43:34;0.10;99.90
38090;DHT22;23904;52.322;10.232;2022-11-21T08:46:00;0.20;99.90
38090;DHT22;23904;52.322;10.232;2022-11-21T08:48:25;0.30;99.90
38090;DHT22;23904;52.322;10.232;2022-11-21T08:50:51;0.40;99.90
38090;DHT22;23904;52.322;10.232;2022-11-21T08:53:17;0.40;99.90
38090;DHT22;23904;52.322;10.232;2022-11-21T08:55:42;0.50;99.90
38090;DHT22;23904;52.322;10.232;2022-11-21T08:58:08;0.60;99.90
38090;DHT22;23904;52.322;10.232;2022-11-21T09:00:33;0.60;99.90
38090;DHT22;23904;52.322;10.232;2022-11-21T09:03:02;0.60;99.90
38090;DHT22;23904;52.322;10.232;2022-11-21T09:05:28;0.80;99.90
38090;DHT22;23904;52.322;10.232;2022-11-21T09:07:54;1.10;99.90
38090;DHT22;23904;52.322;10.232;2022-11-21T09:10:21;1.30;99.90
38090;DHT22;23904;52.322;10.232;2022-11-21T09:12:47;1.60;99.90
38090;DHT22;23904;52.322;10.232;2022-11-21T09:15:13;1.70;99.90
38090;DHT22;23904;52.322;10.232;2022-11-21T09:18:00;1.60;99.90
38090;DHT22;23904;52.322;10.232;2022-11-21T09:20:32;1.70;99.90
38090;DHT22;23904;52.322;10.232;2022-11-21T09:23:05;1.70;99.90
38090;DHT22;23904;52.322;10.232;2022-11-21T09:25:32;1.80;99.90
38090;DHT22;23904;52.322;10.232;2022-11-21T09:28:03;1.90;99.90
38090;DHT22;23904;52.322;10.232;2022-11-21T09:30:29;2.00;99.90
38090;DHT22;23904;52.322;10.232;2022-11-21T09:32:59;2.10;99.90
38090;DHT22;23904;52.322;10.232;2022-11-21T09:35:25;2.10;99.90
38090;DHT22;23904;52.322;10.232;2022-11-21T09:37:51;3.00;99.90
38090;DHT22;23904;52.322;10.232;2022-11-21T09:40:17;4.20;99.90
38090;DHT22;23904;52.322;10.232;2022-11-21T09:45:22;6.00;99.90
38090;DHT22;23904;52.322;10.232;2022-11-21T09:47:51;7.00;99.90
38090;DHT22;23904;52.322;10.232;2022-11-21T09:50:23;7.40;99.90
38090;DHT22;23904;52.322;10.232;2022-11-21T09:53:02;8.80;99.90
38090;DHT22;23904;52.322;10.232;2022-11-21T09:58:03;12.50;91.70
38090;DHT22;23904;52.322;10.232;2022-11-21T10:00:30;12.90;88.20
38090;DHT22;23904;52.322;10.232;2022-11-21T10:02:56;11.60;87.00
38090;DHT22;23904;52.322;10.232;2022-11-21T10:05:42;12.30;86.10
38090;DHT22;23904;52.322;10.232;2022-11-21T10:16:48;8.10;93.90
38090;DHT22;23904;52.322;10.232;2022-11-21T10:22:17;6.70;96.80
38090;DHT22;23904;52.322;10.232;2022-11-21T10:27:42;5.30;99.60
38090;DHT22;23904;52.322;10.232;2022-11-21T10:30:13;4.80;99.90
38090;DHT22;23904;52.322;10.232;2022-11-21T10:32:52;4.40;99.90
38090;DHT22;23904;52.322;10.232;2022-11-21T10:35:22;4.30;99.90
38090;DHT22;23904;52.322;10.232;2022-11-21T10:37:53;4.00;99.90
38090;DHT22;23904;52.322;10.232;2022-11-21T10:46:03;3.30;99.90
38090;DHT22;23904;52.322;10.232;2022-11-21T10:48:29;3.50;99.90
38090;DHT22;23904;52.322;10.232;2022-11-21T10:53:38;3.30;99.90
38090;DHT22;23904;52.322;10.232;2022-11-21T10:56:24;3.00;99.90
38090;DHT22;23904;52.322;10.232;2022-11-21T10:58:54;3.10;99.90
38090;DHT22;23904;52.322;10.232;2022-11-21T11:06:35;3.50;99.90
38090;DHT22;23904;52.322;10.232;2022-11-21T11:09:02;3.70;99.90
38090;DHT22;23904;52.322;10.232;2022-11-21T11:11:28;3.80;99.90
38090;DHT22;23904;52.322;10.232;2022-11-21T11:16:27;3.90;99.90
38090;DHT22;23904;52.322;10.232;2022-11-21T11:19:06;3.40;99.90
38090;DHT22;23904;52.322;10.232;2022-11-21T11:21:42;3.30;99.90
38090;DHT22;23904;52.322;10.232;2022-11-21T11:26:49;4.30;99.90
38090;DHT22;23904;52.322;10.232;2022-11-21T11:29:18;5.00;99.90
38090;DHT22;23904;52.322;10.232;2022-11-21T11:31:59;5.60;99.90
38090;DHT22;23904;52.322;10.232;2022-11-21T11:34:27;6.00;99.90
38090;DHT22;23904;52.322;10.232;2022-11-21T11:36:57;6.10;99.90
38090;DHT22;23904;52.322;10.232;2022-11-21T11:39:34;6.60;99.90
38090;DHT22;23904;52.322;10.232;2022-11-21T11:47:55;6.40;99.90
38090;DHT22;23904;52.322;10.232;2022-11-21T11:50:29;6.90;99.90
38090;DHT22;23904;52.322;10.232;2022-11-21T11:58:24;7.80;98.90
38090;DHT22;23904;52.322;10.232;2022-11-21T12:01:00;7.80;98.30
38090;DHT22;23904;52.322;10.232;2022-11-21T12:06:19;7.30;97.90
38090;DHT22;23904;52.322;10.232;2022-11-21T12:08:51;6.70;99.10
38090;DHT22;23904;52.322;10.232;2022-11-21T12:11:39;6.70;99.70
38090;DHT22;23904;52.322;10.232;2022-11-21T12:14:44;6.10;99.90
38090;DHT22;23904;52.322;10.232;2022-11-21T12:17:34;5.80;99.90
38090;DHT22;23904;52.322;10.232;2022-11-21T12:20:10;5.50;99.90
38090;DHT22;23904;52.322;10.232;2022-11-21T12:22:38;5.50;99.90
38090;DHT22;23904;52.322;10.232;2022-11-21T12:25:09;5.70;99.90
38090;DHT22;23904;52.322;10.232;2022-11-21T12:27:39;5.80;99.90
38090;DHT22;23904;52.322;10.232;2022-11-21T12:33:04;5.50;99.90
38090;DHT22;23904;52.322;10.232;2022-11-21T12:43:47;4.80;99.90
38090;DHT22;23904;52.322;10.232;2022-11-21T12:46:27;4.30;99.90
38090;DHT22;23904;52.322;10.232;2022-11-21T12:49:02;4.00;99.90
38090;DHT22;23904;52.322;10.232;2022-11-21T13:00:23;4.50;99.90
38090;DHT22;23904;52.322;10.232;2022-11-21T13:05:49;5.80;99.90
38090;DHT22;23904;52.322;10.232;2022-11-21T13:08:17;7.20;99.70
38090;DHT22;23904;52.322;10.232;2022-11-21T13:10:52;8.40;98.20
38090;DHT22;23904;52.322;10.232;2022-11-21T13:13:42;9.60;95.50
38090;DHT22;23904;52.322;10.232;2022-11-21T13:16:10;10.60;93.00
38090;DHT22;23904;52.322;10.232;2022-11-21T13:19:10;10.80;91.50
38090;DHT22;23904;52.322;10.232;2022-11-21T13:21:49;10.50;91.20
38090;DHT22;23904;52.322;10.232;2022-11-21T13:27:28;9.20;92.40
38090;DHT22;23904;52.322;10.232;2022-11-21T13:35:21;5.80;97.50
38090;DHT22;23904;52.322;10.232;2022-11-21T13:45:42;3.80;99.90
38090;DHT22;23904;52.322;10.232;2022-11-21T13:54:01;3.30;99.90
38090;DHT22;23904;52.322;10.232;2022-11-21T13:57:03;3.20;99.90
38090;DHT22;23904;52.322;10.232;2022-11-21T14:05:03;2.80;99.90
38090;DHT22;23904;52.322;10.232;2022-11-21T14:07:37;2.70;99.90
38090;DHT22;23904;52.322;10.232;2022-11-21T14:10:04;2.60;99.90
38090;DHT22;23904;52.322;10.232;2022-11-21T14:12:44;2.50;99.90
38090;DHT22;23904;52.322;10.232;2022-11-21T14:15:16;2.50;99.90
38090;DHT22;23904;52.322;10.232;2022-11-21T14:23:03;2.30;99.90
38090;DHT22;23904;52.322;10.232;2022-11-21T14:25:35;2.20;99.90
38090;DHT22;23904;52.322;10.232;2022-11-21T14:28:02;2.10;99.90
38090;DHT22;23904;52.322;10.232;2022-11-21T14:30:37;2.20;99.90
38090;DHT22;23904;52.322;10.232;2022-11-21T14:35:53;2.10;99.90
38090;DHT22;23904;52.322;10.232;2022-11-21T14:38:20;2.00;99.90
38090;DHT22;23904;52.322;10.232;2022-11-21T14:40:46;2.00;99.90
38090;DHT22;23904;52.322;10.232;2022-11-21T14:43:31;1.90;99.90
38090;DHT22;23904;52.322;10.232;2022-11-21T14:45:57;1.90;99.90
38090;DHT22;23904;52.322;10.232;2022-11-21T14:48:24;1.90;99.90
38090;DHT22;23904;52.322;10.232;2022-11-21T14:50:51;1.80;99.90
38090;DHT22;23904;52.322;10.232;2022-11-21T14:53:16;1.80;99.90
38090;DHT22;23904;52.322;10.232;2022-11-21T14:55:42;1.80;99.90
38090;DHT22;23904;52.322;10.232;2022-11-21T14:58:13;1.70;99.90
38090;DHT22;23904;52.322;10.232;2022-11-21T15:00:40;1.70;99.90
38090;DHT22;23904;52.322;10.232;2022-11-21T15:03:19;1.60;99.90
38090;DHT22;23904;52.322;10.232;2022-11-21T15:05:47;1.60;99.90
38090;DHT22;23904;52.322;10.232;2022-11-21T15:08:20;1.60;99.90
38090;DHT22;23904;52.322;10.232;2022-11-21T15:10:47;1.50;99.90
38090;DHT22;23904;52.322;10.232;2022-11-21T15:13:12;1.50;99.90
38090;DHT22;23904;52.322;10.232;2022-11-21T15:15:41;1.50;99.90
38090;DHT22;23904;52.322;10.232;2022-11-21T15:18:18;1.50;99.90
38090;DHT22;23904;52.322;10.232;2022-11-21T15:20:47;1.50;99.90
38090;DHT22;23904;52.322;10.232;2022-11-21T15:23:27;1.40;99.90
38090;DHT22;23904;52.322;10.232;2022-11-21T15:25:53;1.40;99.90
38090;DHT22;23904;52.322;10.232;2022-11-21T15:28:19;1.40;99.90
38090;DHT22;23904;52.322;10.232;2022-11-21T15:30:44;1.30;99.90
38090;DHT22;23904;52.322;10.232;2022-11-21T15:33:16;1.20;99.90
38090;DHT22;23904;52.322;10.232;2022-11-21T15:35:44;1.10;99.90
38090;DHT22;23904;52.322;10.232;2022-11-21T15:40:58;1.10;99.90
38090;DHT22;23904;52.322;10.232;2022-11-21T15:43:45;1.00;99.90
38090;DHT22;23904;52.322;10.232;2022-11-21T15:51:19;1.00;99.90
38090;DHT22;23904;52.322;10.232;2022-11-21T15:53:46;1.00;99.90
38090;DHT22;23904;52.322;10.232;2022-11-21T15:56:12;1.00;99.90
38090;DHT22;23904;52.322;10.232;2022-11-21T15:58:39;1.10;99.90
38090;DHT22;23904;52.322;10.232;2022-11-21T16:01:05;1.10;99.90
38090;DHT22;23904;52.322;10.232;2022-11-21T16:03:30;1.10;99.90
38090;DHT22;23904;52.322;10.232;2022-11-21T16:05:57;1.10;99.90
38090;DHT22;23904;52.322;10.232;2022-11-21T16:08:23;1.10;99.90
38090;DHT22;23904;52.322;10.232;2022-11-21T16:10:48;1.10;99.90
38090;DHT22;23904;52.322;10.232;2022-11-21T16:13:14;1.10;99.90
38090;DHT22;23904;52.322;10.232;2022-11-21T16:15:40;1.10;99.90
38090;DHT22;23904;52.322;10.232;2022-11-21T16:18:05;1.00;99.90
38090;DHT22;23904;52.322;10.232;2022-11-21T16:20:31;1.00;99.90
38090;DHT22;23904;52.322;10.232;2022-11-21T16:22:56;0.90;99.90
38090;DHT22;23904;52.322;10.232;2022-11-21T16:25:22;0.90;99.90
38090;DHT22;23904;52.322;10.232;2022-11-21T16:27:47;0.90;99.90
38090;DHT22;23904;52.322;10.232;2022-11-21T16:30:13;1.00;99.90
38090;DHT22;23904;52.322;10.232;2022-11-21T16:32:39;0.90;99.90
38090;DHT22;23904;52.322;10.232;2022-11-21T16:35:04;0.90;99.90
38090;DHT22;23904;52.322;10.232;2022-11-21T16:37:31;1.00;99.90
38090;DHT22;23904;52.322;10.232;2022-11-21T16:39:56;1.00;99.90
38090;DHT22;23904;52.322;10.232;2022-11-21T16:42:22;1.00;99.90
38090;DHT22;23904;52.322;10.232;2022-11-21T16:44:48;1.00;99.90
38090;DHT22;23904;52.322;10.232;2022-11-21T16:47:13;1.00;99.90
38090;DHT22;23904;52.322;10.232;2022-11-21T16:49:39;1.00;99.90
38090;DHT22;23904;52.322;10.232;2022-11-21T16:52:09;0.90;99.90
38090;DHT22;23904;52.322;10.232;2022-11-21T16:54:35;1.00;99.90
38090;DHT22;23904;52.322;10.232;2022-11-21T16:57:01;1.10;99.90
38090;DHT22;23904;52.322;10.232;2022-11-21T16:59:26;1.10;99.90
38090;DHT22;23904;52.322;10.232;2022-11-21T17:01:52;1.20;99.90
38090;DHT22;23904;52.322;10.232;2022-11-21T17:04:17;1.30;99.90
38090;DHT22;23904;52.322;10.232;2022-11-21T17:06:43;1.40;99.90
38090;DHT22;23904;52.322;10.232;2022-11-21T17:09:09;1.40;99.90
38090;DHT22;23904;52.322;10.232;2022-11-21T17:11:35;1.50;99.90
38090;DHT22;23904;52.322;10.232;2022-11-21T17:14:02;1.50;99.90
38090;DHT22;23904;52.322;10.232;2022-11-21T17:16:28;1.60;99.90
38090;DHT22;23904;52.322;10.232;2022-11-21T17:18:55;1.60;99.90
38090;DHT22;23904;52.322;10.232;2022-11-21T17:21:22;1.70;99.90
38090;DHT22;23904;52.322;10.232;2022-11-21T17:23:48;1.60;99.90
38090;DHT22;23904;52.322;10.232;2022-11-21T17:26:14;1.70;99.90
38090;DHT22;23904;52.322;10.232;2022-11-21T17:28:41;1.70;99.90
38090;DHT22;23904;52.322;10.232;2022-11-21T17:31:08;1.80;99.90
38090;DHT22;23904;52.322;10.232;2022-11-21T17:33:34;1.80;99.90
38090;DHT22;23904;52.322;10.232;2022-11-21T17:36:01;1.80;99.90
38090;DHT22;23904;52.322;10.232;2022-11-21T17:38:28;1.70;99.90
38090;DHT22;23904;52.322;10.232;2022-11-21T17:43:29;1.60;99.90
38090;DHT22;23904;52.322;10.232;2022-11-21T17:45:59;1.40;99.90
38090;DHT22;23904;52.322;10.232;2022-11-21T17:48:26;1.40;99.90